sensor_id;sensor_type;location;lat;lon;timestamp;temperature;humidity
21495;DHT22;10909;53.590;10.054;2022-08-19T00:01:50;23.80;61.30
21495;DHT22;10909;53.590;10.054;2022-08-19T00:04:18;23.80;61.30
21495;DHT22;10909;53.590;10.054;2022-08-19T00:06:45;23.80;61.30
21495;DHT22;10909;53.590;10.054;2022-08-19T00:09:14;23.80;61.30
21495;DHT22;10909;53.590;10.054;2022-08-19T00:11:41;23.90;61.30
21495;DHT22;10909;53.590;10.054;2022-08-19T00:14:08;23.90;61.40
21495;DHT22;10909;53.590;10.054;2022-08-19T00:16:36;23.90;61.50
21495;DHT22;10909;53.590;10.054;2022-08-19T00:19:04;23.90;61.50
21495;DHT22;10909;53.590;10.054;2022-08-19T00:21:29;23.90;61.30
21495;DHT22;10909;53.590;10.054;2022-08-19T00:23:55;23.90;61.40
21495;DHT22;10909;53.590;10.054;2022-08-19T00:26:27;23.80;61.40
21495;DHT22;10909;53.590;10.054;2022-08-19T00:28:53;23.80;61.50
21495;DHT22;10909;53.590;10.054;2022-08-19T00:31:19;23.70;61.70
21495;DHT22;10909;53.590;10.054;2022-08-19T00:33:46;23.70;61.80
21495;DHT22;10909;53.590;10.054;2022-08-19T00:36:13;23.70;62.00
21495;DHT22;10909;53.590;10.054;2022-08-19T00:38:39;23.60;62.20
21495;DHT22;10909;53.590;10.054;2022-08-19T00:41:13;23.60;62.40
21495;DHT22;10909;53.590;10.054;2022-08-19T00:43:40;23.60;62.30
21495;DHT22;10909;53.590;10.054;2022-08-19T00:46:09;23.50;62.40
21495;DHT22;10909;53.590;10.054;2022-08-19T00:48:35;23.50;62.60
21495;DHT22;10909;53.590;10.054;2022-08-19T00:51:01;23.50;62.50
21495;DHT22;10909;53.590;10.054;2022-08-19T00:53:30;23.50;62.50
21495;DHT22;10909;53.590;10.054;2022-08-19T00:55:58;23.60;63.50
21495;DHT22;10909;53.590;10.054;2022-08-19T00:58:29;23.60;62.70
21495;DHT22;10909;53.590;10.054;2022-08-19T01:00:55;23.60;62.70
21495;DHT22;10909;53.590;10.054;2022-08-19T01:03:22;23.60;62.60
21495;DHT22;10909;53.590;10.054;2022-08-19T01:05:49;23.60;62.70
21495;DHT22;10909;53.590;10.054;2022-08-19T01:08:16;23.50;62.70
21495;DHT22;10909;53.590;10.054;2022-08-19T01:10:54;23.50;62.70
21495;DHT22;10909;53.590;10.054;2022-08-19T01:13:24;23.50;63.30
21495;DHT22;10909;53.590;10.054;2022-08-19T01:16:04;23.50;63.10
21495;DHT22;10909;53.590;10.054;2022-08-19T01:18:42;23.50;63.50
21495;DHT22;10909;53.590;10.054;2022-08-19T01:21:22;23.40;62.90
21495;DHT22;10909;53.590;10.054;2022-08-19T01:23:49;23.40;63.20
21495;DHT22;10909;53.590;10.054;2022-08-19T01:26:19;23.40;63.00
21495;DHT22;10909;53.590;10.054;2022-08-19T01:28:46;23.40;63.00
21495;DHT22;10909;53.590;10.054;2022-08-19T01:31:18;23.30;62.90
21495;DHT22;10909;53.590;10.054;2022-08-19T01:33:45;23.30;63.30
21495;DHT22;10909;53.590;10.054;2022-08-19T01:36:27;23.30;63.30
21495;DHT22;10909;53.590;10.054;2022-08-19T01:38:54;23.30;64.10
21495;DHT22;10909;53.590;10.054;2022-08-19T01:41:20;23.30;63.60
21495;DHT22;10909;53.590;10.054;2022-08-19T01:43:49;23.30;63.90
21495;DHT22;10909;53.590;10.054;2022-08-19T01:46:16;23.30;63.90
21495;DHT22;10909;53.590;10.054;2022-08-19T01:48:43;23.30;63.80
21495;DHT22;10909;53.590;10.054;2022-08-19T01:51:21;23.30;63.90
21495;DHT22;10909;53.590;10.054;2022-08-19T01:53:51;23.30;64.50
21495;DHT22;10909;53.590;10.054;2022-08-19T01:56:20;23.20;64.00
21495;DHT22;10909;53.590;10.054;2022-08-19T01:58:50;23.20;64.10
21495;DHT22;10909;53.590;10.054;2022-08-19T02:01:18;23.20;64.20
21495;DHT22;10909;53.590;10.054;2022-08-19T02:03:44;23.20;64.00
21495;DHT22;10909;53.590;10.054;2022-08-19T02:06:20;23.20;64.10
21495;DHT22;10909;53.590;10.054;2022-08-19T02:08:46;23.30;64.80
21495;DHT22;10909;53.590;10.054;2022-08-19T02:11:29;23.20;64.20
21495;DHT22;10909;53.590;10.054;2022-08-19T02:13:57;23.20;65.10
21495;DHT22;10909;53.590;10.054;2022-08-19T02:16:23;23.20;64.20
21495;DHT22;10909;53.590;10.054;2022-08-19T02:18:49;23.20;64.20
21495;DHT22;10909;53.590;10.054;2022-08-19T02:21:24;23.20;64.40
21495;DHT22;10909;53.590;10.054;2022-08-19T02:23:50;23.20;65.90
21495;DHT22;10909;53.590;10.054;2022-08-19T02:26:22;23.10;64.70
21495;DHT22;10909;53.590;10.054;2022-08-19T02:28:48;23.10;65.10
21495;DHT22;10909;53.590;10.054;2022-08-19T02:31:24;23.10;64.80
21495;DHT22;10909;53.590;10.054;2022-08-19T02:33:50;23.10;65.60
21495;DHT22;10909;53.590;10.054;2022-08-19T02:36:35;23.10;64.90
21495;DHT22;10909;53.590;10.054;2022-08-19T02:39:01;23.10;66.10
21495;DHT22;10909;53.590;10.054;2022-08-19T02:41:36;23.10;65.20
21495;DHT22;10909;53.590;10.054;2022-08-19T02:44:03;23.10;65.60
21495;DHT22;10909;53.590;10.054;2022-08-19T02:46:35;23.00;65.30
21495;DHT22;10909;53.590;10.054;2022-08-19T02:49:04;23.00;65.60
21495;DHT22;10909;53.590;10.054;2022-08-19T02:51:41;23.00;65.50
21495;DHT22;10909;53.590;10.054;2022-08-19T02:54:08;23.00;65.80
21495;DHT22;10909;53.590;10.054;2022-08-19T02:56:35;22.90;65.50
21495;DHT22;10909;53.590;10.054;2022-08-19T02:59:03;22.90;65.80
21495;DHT22;10909;53.590;10.054;2022-08-19T03:01:35;22.90;65.90
21495;DHT22;10909;53.590;10.054;2022-08-19T03:04:04;22.90;65.70
21495;DHT22;10909;53.590;10.054;2022-08-19T03:06:31;22.90;65.90
21495;DHT22;10909;53.590;10.054;2022-08-19T03:08:57;22.90;66.00
21495;DHT22;10909;53.590;10.054;2022-08-19T03:11:33;22.90;66.10
21495;DHT22;10909;53.590;10.054;2022-08-19T03:13:59;22.90;66.90
21495;DHT22;10909;53.590;10.054;2022-08-19T03:16:43;22.80;66.00
21495;DHT22;10909;53.590;10.054;2022-08-19T03:19:09;22.80;66.90
21495;DHT22;10909;53.590;10.054;2022-08-19T03:21:35;22.80;66.30
21495;DHT22;10909;53.590;10.054;2022-08-19T03:24:03;22.80;66.40
21495;DHT22;10909;53.590;10.054;2022-08-19T03:26:29;22.70;66.30
21495;DHT22;10909;53.590;10.054;2022-08-19T03:28:55;22.70;66.30
21495;DHT22;10909;53.590;10.054;2022-08-19T03:31:25;22.70;66.40
21495;DHT22;10909;53.590;10.054;2022-08-19T03:33:51;22.70;66.60
21495;DHT22;10909;53.590;10.054;2022-08-19T03:36:35;22.70;66.50
21495;DHT22;10909;53.590;10.054;2022-08-19T03:39:01;22.70;68.40
21495;DHT22;10909;53.590;10.054;2022-08-19T03:41:37;22.60;66.80
21495;DHT22;10909;53.590;10.054;2022-08-19T03:44:03;22.60;67.60
21495;DHT22;10909;53.590;10.054;2022-08-19T03:46:39;22.60;67.10
21495;DHT22;10909;53.590;10.054;2022-08-19T03:49:05;22.60;67.70
21495;DHT22;10909;53.590;10.054;2022-08-19T03:51:36;22.60;67.40
21495;DHT22;10909;53.590;10.054;2022-08-19T03:54:04;22.60;67.50
21495;DHT22;10909;53.590;10.054;2022-08-19T03:56:38;22.60;67.50
21495;DHT22;10909;53.590;10.054;2022-08-19T03:59:06;22.60;67.90
21495;DHT22;10909;53.590;10.054;2022-08-19T04:01:38;22.60;67.50
21495;DHT22;10909;53.590;10.054;2022-08-19T04:04:03;22.60;67.90
21495;DHT22;10909;53.590;10.054;2022-08-19T04:06:39;22.60;67.70
21495;DHT22;10909;53.590;10.054;2022-08-19T04:09:07;22.70;68.30
21495;DHT22;10909;53.590;10.054;2022-08-19T04:11:37;22.70;67.80
21495;DHT22;10909;53.590;10.054;2022-08-19T04:14:05;22.70;67.80
21495;DHT22;10909;53.590;10.054;2022-08-19T04:16:34;22.70;67.70
21495;DHT22;10909;53.590;10.054;2022-08-19T04:19:02;22.70;67.90
21495;DHT22;10909;53.590;10.054;2022-08-19T04:21:28;22.70;67.90
21495;DHT22;10909;53.590;10.054;2022-08-19T04:23:55;22.80;67.80
21495;DHT22;10909;53.590;10.054;2022-08-19T04:26:30;22.70;67.70
21495;DHT22;10909;53.590;10.054;2022-08-19T04:29:00;22.80;68.20
21495;DHT22;10909;53.590;10.054;2022-08-19T04:31:29;22.80;67.90
21495;DHT22;10909;53.590;10.054;2022-08-19T04:33:59;22.80;67.80
21495;DHT22;10909;53.590;10.054;2022-08-19T04:36:36;22.80;67.90
21495;DHT22;10909;53.590;10.054;2022-08-19T04:39:09;22.90;68.30
21495;DHT22;10909;53.590;10.054;2022-08-19T04:41:35;22.90;67.80
21495;DHT22;10909;53.590;10.054;2022-08-19T04:44:20;22.80;67.60
21495;DHT22;10909;53.590;10.054;2022-08-19T04:46:48;22.90;67.50
21495;DHT22;10909;53.590;10.054;2022-08-19T04:49:16;22.80;67.60
21495;DHT22;10909;53.590;10.054;2022-08-19T04:51:44;22.80;67.60
21495;DHT22;10909;53.590;10.054;2022-08-19T04:54:12;22.90;67.60
21495;DHT22;10909;53.590;10.054;2022-08-19T04:56:39;22.90;67.50
21495;DHT22;10909;53.590;10.054;2022-08-19T04:59:05;22.90;67.50
21495;DHT22;10909;53.590;10.054;2022-08-19T05:01:32;22.80;67.50
21495;DHT22;10909;53.590;10.054;2022-08-19T05:04:00;22.80;67.60
21495;DHT22;10909;53.590;10.054;2022-08-19T05:06:35;22.70;67.70
21495;DHT22;10909;53.590;10.054;2022-08-19T05:09:03;22.80;67.80
21495;DHT22;10909;53.590;10.054;2022-08-19T05:11:37;22.80;67.90
21495;DHT22;10909;53.590;10.054;2022-08-19T05:14:04;22.70;67.80
21495;DHT22;10909;53.590;10.054;2022-08-19T05:16:30;22.70;67.90
21495;DHT22;10909;53.590;10.054;2022-08-19T05:18:56;22.80;68.20
21495;DHT22;10909;53.590;10.054;2022-08-19T05:21:42;22.80;68.10
21495;DHT22;10909;53.590;10.054;2022-08-19T05:24:27;22.80;68.00
21495;DHT22;10909;53.590;10.054;2022-08-19T05:26:54;22.80;67.90
21495;DHT22;10909;53.590;10.054;2022-08-19T05:29:23;22.90;67.90
21495;DHT22;10909;53.590;10.054;2022-08-19T05:31:50;22.90;67.80
21495;DHT22;10909;53.590;10.054;2022-08-19T05:34:17;22.90;67.70
21495;DHT22;10909;53.590;10.054;2022-08-19T05:36:44;22.90;67.60
21495;DHT22;10909;53.590;10.054;2022-08-19T05:39:16;22.80;67.60
21495;DHT22;10909;53.590;10.054;2022-08-19T05:41:46;22.80;67.70
21495;DHT22;10909;53.590;10.054;2022-08-19T05:44:12;22.80;67.90
21495;DHT22;10909;53.590;10.054;2022-08-19T05:46:39;22.80;67.90
21495;DHT22;10909;53.590;10.054;2022-08-19T05:49:06;22.80;68.00
21495;DHT22;10909;53.590;10.054;2022-08-19T05:51:50;22.80;68.10
21495;DHT22;10909;53.590;10.054;2022-08-19T05:54:16;22.80;68.50
21495;DHT22;10909;53.590;10.054;2022-08-19T05:56:50;22.90;68.10
21495;DHT22;10909;53.590;10.054;2022-08-19T05:59:17;22.90;68.40
21495;DHT22;10909;53.590;10.054;2022-08-19T06:01:45;22.90;68.10
21495;DHT22;10909;53.590;10.054;2022-08-19T06:04:12;22.90;68.20
21495;DHT22;10909;53.590;10.054;2022-08-19T06:06:39;22.90;68.10
21495;DHT22;10909;53.590;10.054;2022-08-19T06:09:06;22.90;68.00
21495;DHT22;10909;53.590;10.054;2022-08-19T06:11:51;23.00;68.10
21495;DHT22;10909;53.590;10.054;2022-08-19T06:14:27;23.00;68.50
21495;DHT22;10909;53.590;10.054;2022-08-19T06:16:53;23.00;68.00
21495;DHT22;10909;53.590;10.054;2022-08-19T06:19:21;23.00;67.80
21495;DHT22;10909;53.590;10.054;2022-08-19T06:21:49;23.00;67.80
21495;DHT22;10909;53.590;10.054;2022-08-19T06:24:19;23.00;67.70
21495;DHT22;10909;53.590;10.054;2022-08-19T06:26:53;23.00;67.90
21495;DHT22;10909;53.590;10.054;2022-08-19T06:29:21;23.00;68.20
21495;DHT22;10909;53.590;10.054;2022-08-19T06:32:09;22.90;68.20
21495;DHT22;10909;53.590;10.054;2022-08-19T06:34:36;23.00;68.70
21495;DHT22;10909;53.590;10.054;2022-08-19T06:37:08;22.90;68.00
21495;DHT22;10909;53.590;10.054;2022-08-19T06:39:38;22.90;68.50
21495;DHT22;10909;53.590;10.054;2022-08-19T06:42:11;23.00;68.50
21495;DHT22;10909;53.590;10.054;2022-08-19T06:44:40;23.00;68.60
21495;DHT22;10909;53.590;10.054;2022-08-19T06:47:08;23.00;68.30
21495;DHT22;10909;53.590;10.054;2022-08-19T06:49:35;23.00;68.30
21495;DHT22;10909;53.590;10.054;2022-08-19T06:52:03;23.00;68.30
21495;DHT22;10909;53.590;10.054;2022-08-19T06:54:29;23.00;68.40
21495;DHT22;10909;53.590;10.054;2022-08-19T06:56:56;23.00;68.40
21495;DHT22;10909;53.590;10.054;2022-08-19T06:59:23;23.00;68.50
21495;DHT22;10909;53.590;10.054;2022-08-19T07:02:14;23.10;68.30
21495;DHT22;10909;53.590;10.054;2022-08-19T07:04:40;23.00;68.80
21495;DHT22;10909;53.590;10.054;2022-08-19T07:07:10;23.10;68.40
21495;DHT22;10909;53.590;10.054;2022-08-19T07:09:39;23.10;68.60
21495;DHT22;10909;53.590;10.054;2022-08-19T07:12:31;23.20;68.40
21495;DHT22;10909;53.590;10.054;2022-08-19T07:15:03;23.20;68.80
21495;DHT22;10909;53.590;10.054;2022-08-19T07:17:29;23.20;68.30
21495;DHT22;10909;53.590;10.054;2022-08-19T07:19:54;23.20;68.30
21495;DHT22;10909;53.590;10.054;2022-08-19T07:22:21;23.30;68.20
21495;DHT22;10909;53.590;10.054;2022-08-19T07:24:48;23.30;68.10
21495;DHT22;10909;53.590;10.054;2022-08-19T07:27:29;23.30;68.00
21495;DHT22;10909;53.590;10.054;2022-08-19T07:29:55;23.30;68.30
21495;DHT22;10909;53.590;10.054;2022-08-19T07:32:20;23.30;68.10
21495;DHT22;10909;53.590;10.054;2022-08-19T07:34:46;23.30;68.20
21495;DHT22;10909;53.590;10.054;2022-08-19T07:37:24;23.30;68.20
21495;DHT22;10909;53.590;10.054;2022-08-19T07:39:52;23.40;68.70
21495;DHT22;10909;53.590;10.054;2022-08-19T07:42:23;23.40;68.50
21495;DHT22;10909;53.590;10.054;2022-08-19T07:44:49;23.50;68.60
21495;DHT22;10909;53.590;10.054;2022-08-19T07:47:27;23.50;68.20
21495;DHT22;10909;53.590;10.054;2022-08-19T07:49:53;23.50;68.10
21495;DHT22;10909;53.590;10.054;2022-08-19T07:52:41;23.50;67.80
21495;DHT22;10909;53.590;10.054;2022-08-19T07:55:10;23.50;68.20
21495;DHT22;10909;53.590;10.054;2022-08-19T07:57:35;23.50;67.80
21495;DHT22;10909;53.590;10.054;2022-08-19T08:00:03;23.50;67.90
21495;DHT22;10909;53.590;10.054;2022-08-19T08:02:35;23.50;68.00
21495;DHT22;10909;53.590;10.054;2022-08-19T08:05:02;23.60;68.30
21495;DHT22;10909;53.590;10.054;2022-08-19T08:07:46;23.60;68.10
21495;DHT22;10909;53.590;10.054;2022-08-19T08:10:31;23.60;67.90
21495;DHT22;10909;53.590;10.054;2022-08-19T08:12:57;23.60;67.70
21495;DHT22;10909;53.590;10.054;2022-08-19T08:15:23;23.50;67.70
21495;DHT22;10909;53.590;10.054;2022-08-19T08:17:49;23.50;67.90
21495;DHT22;10909;53.590;10.054;2022-08-19T08:20:15;23.50;68.00
21495;DHT22;10909;53.590;10.054;2022-08-19T08:22:45;23.50;67.90
21495;DHT22;10909;53.590;10.054;2022-08-19T08:25:30;23.50;68.00
21495;DHT22;10909;53.590;10.054;2022-08-19T08:27:56;23.50;67.70
21495;DHT22;10909;53.590;10.054;2022-08-19T08:30:26;23.50;67.80
21495;DHT22;10909;53.590;10.054;2022-08-19T08:32:52;23.40;67.80
21495;DHT22;10909;53.590;10.054;2022-08-19T08:35:20;23.50;67.90
21495;DHT22;10909;53.590;10.054;2022-08-19T08:37:48;23.40;67.90
21495;DHT22;10909;53.590;10.054;2022-08-19T08:43:39;23.40;68.60
21495;DHT22;10909;53.590;10.054;2022-08-19T08:46:47;23.50;68.20
21495;DHT22;10909;53.590;10.054;2022-08-19T08:52:56;23.50;68.60
21495;DHT22;10909;53.590;10.054;2022-08-19T08:55:05;23.50;68.50
21495;DHT22;10909;53.590;10.054;2022-08-19T08:57:37;23.60;68.50
21495;DHT22;10909;53.590;10.054;2022-08-19T09:00:13;23.70;68.60
21495;DHT22;10909;53.590;10.054;2022-08-19T09:02:40;23.70;67.60
21495;DHT22;10909;53.590;10.054;2022-08-19T09:05:06;23.80;68.20
21495;DHT22;10909;53.590;10.054;2022-08-19T09:10:24;23.80;67.90
21495;DHT22;10909;53.590;10.054;2022-08-19T09:15:47;23.80;68.20
21495;DHT22;10909;53.590;10.054;2022-08-19T09:18:14;23.70;67.90
21495;DHT22;10909;53.590;10.054;2022-08-19T09:20:41;23.80;68.80
21495;DHT22;10909;53.590;10.054;2022-08-19T09:23:07;23.70;67.90
21495;DHT22;10909;53.590;10.054;2022-08-19T09:25:33;23.80;68.00
21495;DHT22;10909;53.590;10.054;2022-08-19T09:28:00;23.80;68.10
21495;DHT22;10909;53.590;10.054;2022-08-19T09:30:30;23.80;68.20
21495;DHT22;10909;53.590;10.054;2022-08-19T09:32:56;23.80;67.90
21495;DHT22;10909;53.590;10.054;2022-08-19T09:35:24;23.90;67.80
21495;DHT22;10909;53.590;10.054;2022-08-19T09:37:51;23.90;67.70
21495;DHT22;10909;53.590;10.054;2022-08-19T09:40:18;23.80;67.60
21495;DHT22;10909;53.590;10.054;2022-08-19T09:42:44;23.80;67.60
21495;DHT22;10909;53.590;10.054;2022-08-19T09:45:13;23.80;67.60
21495;DHT22;10909;53.590;10.054;2022-08-19T09:47:39;23.80;67.70
21495;DHT22;10909;53.590;10.054;2022-08-19T09:50:07;23.70;67.70
21495;DHT22;10909;53.590;10.054;2022-08-19T09:52:33;23.70;68.00
21495;DHT22;10909;53.590;10.054;2022-08-19T09:55:04;23.70;68.00
21495;DHT22;10909;53.590;10.054;2022-08-19T09:57:30;23.70;67.90
21495;DHT22;10909;53.590;10.054;2022-08-19T09:59:56;23.70;67.90
21495;DHT22;10909;53.590;10.054;2022-08-19T10:02:22;23.70;68.00
21495;DHT22;10909;53.590;10.054;2022-08-19T10:04:48;23.70;68.00
21495;DHT22;10909;53.590;10.054;2022-08-19T10:07:32;23.60;67.90
21495;DHT22;10909;53.590;10.054;2022-08-19T10:09:59;23.60;68.00
21495;DHT22;10909;53.590;10.054;2022-08-19T10:12:25;23.60;68.30
21495;DHT22;10909;53.590;10.054;2022-08-19T10:14:52;23.50;68.30
21495;DHT22;10909;53.590;10.054;2022-08-19T10:17:19;23.50;68.60
21495;DHT22;10909;53.590;10.054;2022-08-19T10:19:45;23.50;68.50
21495;DHT22;10909;53.590;10.054;2022-08-19T10:22:12;23.60;68.60
21495;DHT22;10909;53.590;10.054;2022-08-19T10:24:39;23.60;68.70
21495;DHT22;10909;53.590;10.054;2022-08-19T10:27:05;23.60;68.80
21495;DHT22;10909;53.590;10.054;2022-08-19T10:29:32;23.70;68.90
21495;DHT22;10909;53.590;10.054;2022-08-19T10:32:02;23.70;69.10
21495;DHT22;10909;53.590;10.054;2022-08-19T10:34:29;23.70;69.10
21495;DHT22;10909;53.590;10.054;2022-08-19T10:36:56;23.80;69.10
21495;DHT22;10909;53.590;10.054;2022-08-19T10:39:22;23.90;69.20
21495;DHT22;10909;53.590;10.054;2022-08-19T10:41:48;23.90;69.30
21495;DHT22;10909;53.590;10.054;2022-08-19T10:44:16;24.00;69.10
21495;DHT22;10909;53.590;10.054;2022-08-19T10:46:43;24.00;68.90
21495;DHT22;10909;53.590;10.054;2022-08-19T10:49:10;24.10;68.60
21495;DHT22;10909;53.590;10.054;2022-08-19T10:51:38;24.10;68.30
21495;DHT22;10909;53.590;10.054;2022-08-19T10:54:22;24.10;68.10
21495;DHT22;10909;53.590;10.054;2022-08-19T10:56:47;24.10;68.10
21495;DHT22;10909;53.590;10.054;2022-08-19T10:59:28;24.00;68.10
21495;DHT22;10909;53.590;10.054;2022-08-19T11:01:59;24.10;68.40
21495;DHT22;10909;53.590;10.054;2022-08-19T11:04:25;24.10;68.30
21495;DHT22;10909;53.590;10.054;2022-08-19T11:06:51;24.10;68.20
21495;DHT22;10909;53.590;10.054;2022-08-19T11:09:20;24.10;68.20
21495;DHT22;10909;53.590;10.054;2022-08-19T11:11:46;24.10;68.20
21495;DHT22;10909;53.590;10.054;2022-08-19T11:14:16;24.10;68.20
21495;DHT22;10909;53.590;10.054;2022-08-19T11:16:44;24.10;68.30
21495;DHT22;10909;53.590;10.054;2022-08-19T11:19:11;24.10;68.50
21495;DHT22;10909;53.590;10.054;2022-08-19T11:21:43;24.20;68.30
21495;DHT22;10909;53.590;10.054;2022-08-19T11:24:16;24.20;68.20
21495;DHT22;10909;53.590;10.054;2022-08-19T11:26:43;24.20;68.30
21495;DHT22;10909;53.590;10.054;2022-08-19T11:29:11;24.20;68.10
21495;DHT22;10909;53.590;10.054;2022-08-19T11:31:44;24.20;68.40
21495;DHT22;10909;53.590;10.054;2022-08-19T11:34:13;24.30;68.60
21495;DHT22;10909;53.590;10.054;2022-08-19T11:36:41;24.40;68.50
21495;DHT22;10909;53.590;10.054;2022-08-19T11:39:09;24.40;68.80
21495;DHT22;10909;53.590;10.054;2022-08-19T11:41:35;24.50;69.10
21495;DHT22;10909;53.590;10.054;2022-08-19T11:44:02;24.70;69.10
21495;DHT22;10909;53.590;10.054;2022-08-19T11:46:30;24.80;69.00
21495;DHT22;10909;53.590;10.054;2022-08-19T11:48:58;25.00;68.60
21495;DHT22;10909;53.590;10.054;2022-08-19T11:51:26;25.10;68.20
21495;DHT22;10909;53.590;10.054;2022-08-19T11:53:54;25.20;67.80
21495;DHT22;10909;53.590;10.054;2022-08-19T11:56:21;25.30;67.70
21495;DHT22;10909;53.590;10.054;2022-08-19T11:58:47;25.40;67.60
21495;DHT22;10909;53.590;10.054;2022-08-19T12:01:15;25.40;67.30
21495;DHT22;10909;53.590;10.054;2022-08-19T12:03:42;25.50;67.00
21495;DHT22;10909;53.590;10.054;2022-08-19T12:06:12;25.50;66.60
21495;DHT22;10909;53.590;10.054;2022-08-19T12:08:39;25.60;66.20
21495;DHT22;10909;53.590;10.054;2022-08-19T12:11:08;25.60;66.00
21495;DHT22;10909;53.590;10.054;2022-08-19T12:13:34;25.60;65.80
21495;DHT22;10909;53.590;10.054;2022-08-19T12:16:11;25.60;65.80
21495;DHT22;10909;53.590;10.054;2022-08-19T12:18:39;25.60;65.70
21495;DHT22;10909;53.590;10.054;2022-08-19T12:21:08;25.60;65.50
21495;DHT22;10909;53.590;10.054;2022-08-19T12:23:37;25.60;65.60
21495;DHT22;10909;53.590;10.054;2022-08-19T12:26:08;25.60;65.50
21495;DHT22;10909;53.590;10.054;2022-08-19T12:28:34;25.60;65.50
21495;DHT22;10909;53.590;10.054;2022-08-19T12:31:00;25.60;65.80
21495;DHT22;10909;53.590;10.054;2022-08-19T12:33:25;25.60;66.00
21495;DHT22;10909;53.590;10.054;2022-08-19T12:35:53;25.70;66.50
21495;DHT22;10909;53.590;10.054;2022-08-19T12:38:19;25.80;66.60
21495;DHT22;10909;53.590;10.054;2022-08-19T12:40:48;26.00;66.50
21495;DHT22;10909;53.590;10.054;2022-08-19T12:43:15;26.20;66.40
21495;DHT22;10909;53.590;10.054;2022-08-19T12:45:41;26.40;66.30
21495;DHT22;10909;53.590;10.054;2022-08-19T12:48:08;26.50;66.00
21495;DHT22;10909;53.590;10.054;2022-08-19T12:50:34;26.70;65.70
21495;DHT22;10909;53.590;10.054;2022-08-19T12:52:59;26.80;65.20
21495;DHT22;10909;53.590;10.054;2022-08-19T12:55:25;26.90;64.30
21495;DHT22;10909;53.590;10.054;2022-08-19T12:57:53;27.10;64.30
21495;DHT22;10909;53.590;10.054;2022-08-19T13:00:20;27.20;63.90
21495;DHT22;10909;53.590;10.054;2022-08-19T13:02:48;27.30;63.90
21495;DHT22;10909;53.590;10.054;2022-08-19T13:05:18;27.50;64.20
21495;DHT22;10909;53.590;10.054;2022-08-19T13:07:49;27.70;64.10
21495;DHT22;10909;53.590;10.054;2022-08-19T13:10:19;27.90;63.40
21495;DHT22;10909;53.590;10.054;2022-08-19T13:12:47;28.10;62.50
21495;DHT22;10909;53.590;10.054;2022-08-19T13:15:14;28.30;61.90
21495;DHT22;10909;53.590;10.054;2022-08-19T13:17:40;28.40;61.00
21495;DHT22;10909;53.590;10.054;2022-08-19T13:20:08;28.40;60.40
21495;DHT22;10909;53.590;10.054;2022-08-19T13:22:34;28.40;60.00
21495;DHT22;10909;53.590;10.054;2022-08-19T13:25:04;28.40;59.80
21495;DHT22;10909;53.590;10.054;2022-08-19T13:27:31;28.30;59.60
21495;DHT22;10909;53.590;10.054;2022-08-19T13:29:56;28.30;59.60
21495;DHT22;10909;53.590;10.054;2022-08-19T13:32:40;28.30;59.60
21495;DHT22;10909;53.590;10.054;2022-08-19T13:35:25;28.30;59.80
21495;DHT22;10909;53.590;10.054;2022-08-19T13:37:50;28.30;59.90
21495;DHT22;10909;53.590;10.054;2022-08-19T13:40:22;28.40;59.40
21495;DHT22;10909;53.590;10.054;2022-08-19T13:42:54;28.40;58.80
21495;DHT22;10909;53.590;10.054;2022-08-19T13:45:23;28.40;59.10
21495;DHT22;10909;53.590;10.054;2022-08-19T13:47:51;28.30;58.80
21495;DHT22;10909;53.590;10.054;2022-08-19T13:50:20;28.30;58.80
21495;DHT22;10909;53.590;10.054;2022-08-19T13:52:46;28.30;58.90
21495;DHT22;10909;53.590;10.054;2022-08-19T13:55:13;28.30;59.00
21495;DHT22;10909;53.590;10.054;2022-08-19T13:57:38;28.30;58.80
21495;DHT22;10909;53.590;10.054;2022-08-19T14:00:07;28.30;58.40
21495;DHT22;10909;53.590;10.054;2022-08-19T14:02:35;28.30;58.20
21495;DHT22;10909;53.590;10.054;2022-08-19T14:05:03;28.30;58.20
21495;DHT22;10909;53.590;10.054;2022-08-19T14:07:30;28.20;58.00
21495;DHT22;10909;53.590;10.054;2022-08-19T14:09:55;28.20;58.00
21495;DHT22;10909;53.590;10.054;2022-08-19T14:12:21;28.10;57.90
21495;DHT22;10909;53.590;10.054;2022-08-19T14:14:47;28.00;57.80
21495;DHT22;10909;53.590;10.054;2022-08-19T14:17:13;28.00;57.90
21495;DHT22;10909;53.590;10.054;2022-08-19T14:19:38;27.90;57.80
21495;DHT22;10909;53.590;10.054;2022-08-19T14:22:04;27.80;57.70
21495;DHT22;10909;53.590;10.054;2022-08-19T14:24:31;27.70;57.70
21495;DHT22;10909;53.590;10.054;2022-08-19T14:26:58;27.70;57.80
21495;DHT22;10909;53.590;10.054;2022-08-19T14:29:24;27.60;57.80
21495;DHT22;10909;53.590;10.054;2022-08-19T14:31:50;27.50;57.90
21495;DHT22;10909;53.590;10.054;2022-08-19T14:34:16;27.40;57.90
21495;DHT22;10909;53.590;10.054;2022-08-19T14:36:41;27.30;58.10
21495;DHT22;10909;53.590;10.054;2022-08-19T14:39:08;27.20;58.20
21495;DHT22;10909;53.590;10.054;2022-08-19T14:41:35;27.10;58.30
21495;DHT22;10909;53.590;10.054;2022-08-19T14:44:01;27.10;58.50
21495;DHT22;10909;53.590;10.054;2022-08-19T14:46:28;27.00;58.60
21495;DHT22;10909;53.590;10.054;2022-08-19T14:48:55;27.00;58.70
21495;DHT22;10909;53.590;10.054;2022-08-19T14:51:23;26.90;58.70
21495;DHT22;10909;53.590;10.054;2022-08-19T14:53:49;26.90;58.70
21495;DHT22;10909;53.590;10.054;2022-08-19T14:56:20;26.90;58.70
21495;DHT22;10909;53.590;10.054;2022-08-19T14:58:46;26.90;58.70
21495;DHT22;10909;53.590;10.054;2022-08-19T15:01:12;26.90;58.70
21495;DHT22;10909;53.590;10.054;2022-08-19T15:03:39;26.90;58.60
21495;DHT22;10909;53.590;10.054;2022-08-19T15:06:06;26.90;58.60
21495;DHT22;10909;53.590;10.054;2022-08-19T15:08:35;26.90;58.50
21495;DHT22;10909;53.590;10.054;2022-08-19T15:11:10;26.90;58.50
21495;DHT22;10909;53.590;10.054;2022-08-19T15:13:36;26.90;58.50
21495;DHT22;10909;53.590;10.054;2022-08-19T15:16:02;26.90;58.60
21495;DHT22;10909;53.590;10.054;2022-08-19T15:18:28;26.90;58.60
21495;DHT22;10909;53.590;10.054;2022-08-19T15:20:54;26.90;58.60
21495;DHT22;10909;53.590;10.054;2022-08-19T15:23:20;26.90;58.70
21495;DHT22;10909;53.590;10.054;2022-08-19T15:25:46;26.90;58.60
21495;DHT22;10909;53.590;10.054;2022-08-19T15:28:12;27.00;58.50
21495;DHT22;10909;53.590;10.054;2022-08-19T15:30:40;27.00;58.60
21495;DHT22;10909;53.590;10.054;2022-08-19T15:33:06;27.00;58.60
21495;DHT22;10909;53.590;10.054;2022-08-19T15:35:33;27.00;58.40
21495;DHT22;10909;53.590;10.054;2022-08-19T15:37:58;27.00;58.40
21495;DHT22;10909;53.590;10.054;2022-08-19T15:40:25;27.00;58.50